createdAt,value
2023-08-17T00:01:45.822Z,91.80
2023-08-17T00:04:13.929Z,92.00
2023-08-17T00:06:42.216Z,92.20
2023-08-17T00:09:10.872Z,92.60
2023-08-17T00:11:38.975Z,92.80
2023-08-17T00:14:07.472Z,93.40
2023-08-17T00:16:36.920Z,93.70
2023-08-17T00:19:05.217Z,94.60
2023-08-17T00:21:33.712Z,94.40
2023-08-17T00:24:01.751Z,94.60
2023-08-17T00:26:29.792Z,94.20
2023-08-17T00:28:57.887Z,93.90
2023-08-17T00:31:26.008Z,94.10
2023-08-17T00:33:55.398Z,94.50
2023-08-17T00:36:23.509Z,92.70
2023-08-17T00:38:51.600Z,92.60
2023-08-17T00:41:19.659Z,92.70
2023-08-17T00:43:47.740Z,92.30
2023-08-17T00:46:16.371Z,92.10
2023-08-17T00:48:45.576Z,92.50
2023-08-17T00:51:15.384Z,92.90
2023-08-17T00:53:43.630Z,93.50
2023-08-17T00:56:11.663Z,93.90
2023-08-17T00:58:39.805Z,93.50
2023-08-17T01:01:07.849Z,93.70
2023-08-17T01:03:36.864Z,93.50
2023-08-17T01:06:05.757Z,93.50
2023-08-17T01:08:35.497Z,94.00
2023-08-17T01:11:09.566Z,94.30
2023-08-17T01:13:44.712Z,94.10
2023-08-17T01:16:17.985Z,92.10
2023-08-17T01:18:48.286Z,91.50
2023-08-17T01:21:19.113Z,92.00
2023-08-17T01:23:50.951Z,92.40
2023-08-17T01:26:19.045Z,92.70
2023-08-17T01:28:48.850Z,92.90
2023-08-17T01:31:23.458Z,92.50
2023-08-17T01:33:56.514Z,93.00
2023-08-17T01:36:28.660Z,93.60
2023-08-17T01:38:59.293Z,93.80
2023-08-17T01:41:29.043Z,94.30
2023-08-17T01:43:58.865Z,93.80
2023-08-17T01:46:32.635Z,94.20
2023-08-17T01:49:00.748Z,94.10
2023-08-17T01:51:29.029Z,93.90
2023-08-17T01:53:58.460Z,93.40
2023-08-17T01:56:26.519Z,92.90
2023-08-17T01:58:54.563Z,92.40
2023-08-17T02:01:22.547Z,92.30
2023-08-17T02:03:50.579Z,92.60
2023-08-17T02:06:18.646Z,92.90
2023-08-17T02:08:46.761Z,92.80
2023-08-17T02:11:16.160Z,92.50
2023-08-17T02:13:44.382Z,93.00
2023-08-17T02:16:12.465Z,93.80
2023-08-17T02:18:40.529Z,94.30
2023-08-17T02:21:08.639Z,94.40
2023-08-17T02:23:36.931Z,94.40
2023-08-17T02:26:05.014Z,93.90
2023-08-17T02:28:34.434Z,93.90
2023-08-17T02:31:02.637Z,93.90
2023-08-17T02:33:30.772Z,94.40
2023-08-17T02:35:58.872Z,94.60
2023-08-17T02:38:26.957Z,94.50
2023-08-17T02:40:55.013Z,94.60
2023-08-17T02:43:23.124Z,94.40
2023-08-17T02:45:52.556Z,93.50
2023-08-17T02:48:20.927Z,93.00
2023-08-17T02:50:49.207Z,91.20
2023-08-17T02:53:17.293Z,90.90
2023-08-17T02:55:45.348Z,91.10
2023-08-17T02:58:13.393Z,91.00
2023-08-17T03:00:41.422Z,91.60
2023-08-17T03:03:11.020Z,92.10
2023-08-17T03:05:39.195Z,93.10
2023-08-17T03:08:07.744Z,93.40
2023-08-17T03:10:35.964Z,93.60
2023-08-17T03:13:04.108Z,93.20
2023-08-17T03:15:32.246Z,92.70
2023-08-17T03:18:00.347Z,92.70
2023-08-17T03:20:29.734Z,93.70
2023-08-17T03:22:57.825Z,93.80
2023-08-17T03:25:25.964Z,94.10
2023-08-17T03:27:54.027Z,93.50
2023-08-17T03:30:22.055Z,93.50
2023-08-17T03:32:50.119Z,93.30
2023-08-17T03:35:19.468Z,92.80
2023-08-17T03:37:48.862Z,92.60
2023-08-17T03:40:16.995Z,92.60
2023-08-17T03:42:45.083Z,92.90
2023-08-17T03:45:13.118Z,92.30
2023-08-17T03:47:41.161Z,91.90
2023-08-17T03:50:11.117Z,92.50
2023-08-17T03:52:39.168Z,92.60
2023-08-17T03:55:09.401Z,92.20
2023-08-17T03:57:39.383Z,91.80
2023-08-17T04:00:11.412Z,91.70
2023-08-17T04:02:39.702Z,91.80
2023-08-17T04:05:08.616Z,92.50
2023-08-17T04:07:36.728Z,92.70
2023-08-17T04:10:06.327Z,92.70
2023-08-17T04:12:35.896Z,92.70
2023-08-17T04:15:04.077Z,92.80
2023-08-17T04:17:32.283Z,92.60
2023-08-17T04:20:00.500Z,92.20
2023-08-17T04:22:28.556Z,91.60
2023-08-17T04:24:56.640Z,91.30
2023-08-17T04:27:24.897Z,91.20
2023-08-17T04:29:54.532Z,91.80
2023-08-17T04:32:22.599Z,91.20
2023-08-17T04:34:52.319Z,90.70
2023-08-17T04:37:21.952Z,91.20
2023-08-17T04:39:50.334Z,91.80
2023-08-17T04:42:18.502Z,91.80
2023-08-17T04:44:46.561Z,93.10
2023-08-17T04:47:15.985Z,93.20
2023-08-17T04:49:44.083Z,92.90
2023-08-17T04:52:12.135Z,93.30
2023-08-17T04:54:40.197Z,93.50
2023-08-17T04:57:08.227Z,93.40
2023-08-17T04:59:36.324Z,93.40
2023-08-17T05:02:04.410Z,93.60
2023-08-17T05:04:33.801Z,93.80
2023-08-17T05:07:01.877Z,93.90
2023-08-17T05:09:30.081Z,93.60
2023-08-17T05:11:58.142Z,94.20
2023-08-17T05:14:26.181Z,94.40
2023-08-17T05:16:54.246Z,94.10
2023-08-17T05:19:22.340Z,94.30
2023-08-17T05:21:52.420Z,94.20
2023-08-17T05:24:21.597Z,94.20
2023-08-17T05:26:49.782Z,93.90
2023-08-17T05:29:17.874Z,94.00
2023-08-17T05:31:46.043Z,93.60
2023-08-17T05:34:14.366Z,92.10
2023-08-17T05:36:42.455Z,92.00
2023-08-17T05:39:11.892Z,92.10
2023-08-17T05:41:39.994Z,92.70
2023-08-17T05:44:08.855Z,92.80
2023-08-17T05:46:36.954Z,91.80
2023-08-17T05:49:06.731Z,91.90
2023-08-17T05:51:34.942Z,92.10
2023-08-17T05:54:03.017Z,91.80
2023-08-17T05:56:32.430Z,91.10
2023-08-17T05:59:00.580Z,90.90
2023-08-17T06:01:28.692Z,90.80
2023-08-17T06:03:56.837Z,90.00
2023-08-17T06:06:25.075Z,89.60
2023-08-17T06:08:53.141Z,90.20
2023-08-17T06:11:21.276Z,91.10
2023-08-17T06:13:50.687Z,91.60
2023-08-17T06:16:18.739Z,92.00
2023-08-17T06:18:47.063Z,92.40
2023-08-17T06:21:15.084Z,90.90
2023-08-17T06:23:43.096Z,90.40
2023-08-17T06:26:11.133Z,89.30
2023-08-17T06:28:39.172Z,90.80
2023-08-17T06:31:09.033Z,91.10
2023-08-17T06:33:37.186Z,91.20
2023-08-17T06:36:05.713Z,89.10
2023-08-17T06:38:33.731Z,90.60
2023-08-17T06:41:01.728Z,90.20
2023-08-17T06:43:29.804Z,89.60
2023-08-17T06:46:00.299Z,90.00
2023-08-17T06:48:29.837Z,87.90
2023-08-17T06:50:57.873Z,87.80
2023-08-17T06:53:25.987Z,90.00
2023-08-17T06:55:54.067Z,89.50
2023-08-17T06:58:22.109Z,87.80
2023-08-17T07:00:50.230Z,87.80
2023-08-17T07:03:18.411Z,90.40
2023-08-17T07:05:47.923Z,90.40
2023-08-17T07:08:15.945Z,90.30
2023-08-17T07:10:43.950Z,88.20
2023-08-17T07:13:11.995Z,87.70
2023-08-17T07:15:40.138Z,88.00
2023-08-17T07:18:08.270Z,83.40
2023-08-17T07:20:36.280Z,84.70
2023-08-17T07:23:05.988Z,80.30
2023-08-17T07:25:34.217Z,81.50
2023-08-17T07:28:02.392Z,77.90
2023-08-17T07:30:30.606Z,78.40
2023-08-17T07:32:58.784Z,74.00
2023-08-17T07:35:26.896Z,76.00
2023-08-17T07:38:07.309Z,76.70
2023-08-17T07:40:38.603Z,79.00
2023-08-17T07:43:06.679Z,79.00
2023-08-17T07:45:34.996Z,79.60
2023-08-17T07:48:03.144Z,79.20
2023-08-17T07:50:31.241Z,75.70
2023-08-17T07:52:59.299Z,75.10
2023-08-17T07:55:28.672Z,71.50
2023-08-17T07:57:58.099Z,74.70
2023-08-17T08:00:26.143Z,74.10
2023-08-17T08:02:54.289Z,72.60
2023-08-17T08:05:22.436Z,71.30
2023-08-17T08:07:50.513Z,73.00
2023-08-17T08:10:18.676Z,70.70
2023-08-17T08:12:46.720Z,66.40
2023-08-17T08:15:16.362Z,70.10
2023-08-17T08:17:44.443Z,71.80
2023-08-17T08:20:13.184Z,71.80
2023-08-17T08:22:41.277Z,65.20
2023-08-17T08:25:09.854Z,60.70
2023-08-17T08:27:38.413Z,62.30
2023-08-17T08:30:08.027Z,62.00
2023-08-17T08:32:37.455Z,63.00
2023-08-17T08:35:06.138Z,63.80
2023-08-17T08:37:34.701Z,63.20
2023-08-17T08:40:02.753Z,67.70
2023-08-17T08:42:30.967Z,65.70
2023-08-17T08:44:59.095Z,61.60
2023-08-17T08:47:29.045Z,68.70
2023-08-17T08:50:03.627Z,66.60
2023-08-17T08:52:36.789Z,65.50
2023-08-17T08:55:18.060Z,71.80
2023-08-17T08:57:51.689Z,72.20
2023-08-17T09:00:21.235Z,68.30
2023-08-17T09:02:50.372Z,71.10
2023-08-17T09:05:20.767Z,67.50
2023-08-17T09:07:51.012Z,67.10
2023-08-17T09:10:19.476Z,70.40
2023-08-17T09:12:50.248Z,60.30
2023-08-17T09:15:18.769Z,59.30
2023-08-17T09:17:49.008Z,65.30
2023-08-17T09:23:16.398Z,61.00
2023-08-17T09:25:46.748Z,60.50
2023-08-17T09:28:16.851Z,61.50
2023-08-17T09:30:59.221Z,63.30
2023-08-17T09:33:29.013Z,63.30
2023-08-17T09:36:00.532Z,63.20
2023-08-17T09:38:29.323Z,59.90
2023-08-17T09:40:58.990Z,53.40
2023-08-17T09:43:29.433Z,52.90
2023-08-17T09:45:57.954Z,53.90
2023-08-17T09:48:32.992Z,54.70
2023-08-17T09:51:03.579Z,51.70
2023-08-17T09:53:36.277Z,53.00
2023-08-17T09:56:06.083Z,56.20
2023-08-17T09:58:34.186Z,53.90
2023-08-17T10:01:05.833Z,58.30
2023-08-17T10:03:36.085Z,58.10
2023-08-17T10:06:07.745Z,56.40
2023-08-17T10:08:41.743Z,65.30
2023-08-17T10:11:10.857Z,44.80
2023-08-17T10:13:44.948Z,43.90
2023-08-17T10:16:30.215Z,42.20
2023-08-17T10:19:07.258Z,45.20
2023-08-17T10:21:42.279Z,45.40
2023-08-17T10:24:11.075Z,43.90
2023-08-17T10:26:39.417Z,39.50
2023-08-17T10:29:15.226Z,39.60
2023-08-17T10:31:47.648Z,39.30
2023-08-17T10:34:16.693Z,43.60
2023-08-17T10:36:48.422Z,38.70
2023-08-17T10:39:29.903Z,38.40
2023-08-17T10:41:59.438Z,38.20
2023-08-17T10:44:45.304Z,40.40
2023-08-17T10:47:24.132Z,36.50
2023-08-17T10:49:53.191Z,38.00
2023-08-17T10:52:33.767Z,37.40
2023-08-17T10:55:03.226Z,37.50
2023-08-17T10:57:36.276Z,36.60
2023-08-17T11:00:20.735Z,36.30
2023-08-17T11:02:55.464Z,34.40
2023-08-17T11:05:40.727Z,36.90
2023-08-17T11:08:12.082Z,37.20
2023-08-17T11:10:40.418Z,37.00
2023-08-17T11:13:08.622Z,34.90
2023-08-17T11:15:43.372Z,36.40
2023-08-17T11:18:12.459Z,35.20
2023-08-17T11:20:42.779Z,35.40
2023-08-17T11:23:12.655Z,37.40
2023-08-17T11:25:41.048Z,34.10
2023-08-17T11:28:10.798Z,34.30
2023-08-17T11:30:40.182Z,29.90
2023-08-17T11:33:09.735Z,29.50
2023-08-17T11:35:38.335Z,23.10
2023-08-17T11:38:09.080Z,24.80
2023-08-17T11:40:38.829Z,25.10
2023-08-17T11:43:07.656Z,24.70
2023-08-17T11:45:36.261Z,23.80
2023-08-17T11:48:05.407Z,25.50
2023-08-17T11:50:33.814Z,30.10
2023-08-17T11:53:02.542Z,20.50
2023-08-17T11:55:31.023Z,19.30
2023-08-17T11:58:00.413Z,19.80
2023-08-17T12:00:28.551Z,22.30
2023-08-17T12:02:56.773Z,19.90
2023-08-17T12:05:28.111Z,20.90
2023-08-17T12:07:56.465Z,22.00
2023-08-17T12:10:24.659Z,19.60
2023-08-17T12:12:53.151Z,22.80
2023-08-17T12:15:22.737Z,23.40
2023-08-17T12:17:53.854Z,22.20
2023-08-17T12:20:23.005Z,23.40
2023-08-17T12:22:51.092Z,24.60
2023-08-17T12:25:23.940Z,25.90
2023-08-17T12:27:52.108Z,29.30
2023-08-17T12:30:33.442Z,30.60
2023-08-17T12:33:01.545Z,31.90
2023-08-17T12:35:29.657Z,32.40
2023-08-17T12:37:57.737Z,31.90
2023-08-17T12:40:25.961Z,35.00
2023-08-17T12:42:53.969Z,37.40
2023-08-17T12:45:22.025Z,39.20
2023-08-17T12:47:51.411Z,40.40
2023-08-17T12:50:19.530Z,37.00
2023-08-17T12:52:47.757Z,33.80
2023-08-17T12:55:16.116Z,37.40
2023-08-17T12:57:44.177Z,40.30
2023-08-17T13:00:13.367Z,31.30
2023-08-17T13:02:41.504Z,32.80
2023-08-17T13:05:13.434Z,33.30
2023-08-17T13:07:41.548Z,33.50
2023-08-17T13:10:09.932Z,31.70
2023-08-17T13:12:37.960Z,30.40
2023-08-17T13:15:07.168Z,32.60
2023-08-17T13:17:35.319Z,34.00
2023-08-17T13:20:04.937Z,37.10
2023-08-17T13:22:34.499Z,37.70
2023-08-17T13:25:02.616Z,38.40
2023-08-17T13:27:30.680Z,39.60
2023-08-17T13:29:59.866Z,38.60
2023-08-17T13:32:28.379Z,38.50
2023-08-17T13:34:56.775Z,39.40
2023-08-17T13:37:24.810Z,39.10
2023-08-17T13:39:54.267Z,39.40
2023-08-17T13:42:22.586Z,40.00
2023-08-17T13:44:50.620Z,43.90
2023-08-17T13:47:18.828Z,43.60
2023-08-17T13:49:46.914Z,46.30
2023-08-17T13:52:14.987Z,47.30
2023-08-17T13:54:43.082Z,49.60
2023-08-17T13:57:12.588Z,48.60
2023-08-17T13:59:40.861Z,48.60
2023-08-17T14:02:09.645Z,49.20
2023-08-17T14:04:37.768Z,49.00
2023-08-17T14:07:06.012Z,50.90
2023-08-17T14:09:34.098Z,52.60
2023-08-17T14:12:02.818Z,53.60
2023-08-17T14:14:32.437Z,53.40
2023-08-17T14:17:00.578Z,53.80
2023-08-17T14:19:28.943Z,53.10
2023-08-17T14:21:57.158Z,52.00
2023-08-17T14:24:25.270Z,52.80
2023-08-17T14:26:53.310Z,53.40
2023-08-17T14:29:21.338Z,52.60
2023-08-17T14:31:56.239Z,53.20
2023-08-17T14:34:24.567Z,47.20
2023-08-17T14:36:52.679Z,44.70
2023-08-17T14:39:20.765Z,39.70
2023-08-17T14:41:48.873Z,38.40
2023-08-17T14:44:18.364Z,35.90
2023-08-17T14:46:46.462Z,34.60
2023-08-17T14:49:15.925Z,44.80
2023-08-17T14:51:44.964Z,44.80
2023-08-17T14:54:13.005Z,28.80
2023-08-17T14:56:41.376Z,43.60
2023-08-17T14:59:11.055Z,24.90
2023-08-17T15:01:39.436Z,24.30
2023-08-17T15:04:07.815Z,24.20
2023-08-17T15:09:10.310Z,25.90
2023-08-17T15:11:38.471Z,26.90
2023-08-17T15:14:06.626Z,27.20
2023-08-17T15:16:34.691Z,25.70
2023-08-17T15:19:02.736Z,25.30
2023-08-17T15:21:30.725Z,24.70
2023-08-17T15:24:00.762Z,25.20
2023-08-17T15:26:30.132Z,24.30
2023-08-17T15:28:58.393Z,24.50
2023-08-17T15:31:26.576Z,25.90
2023-08-17T15:33:54.649Z,26.00
2023-08-17T15:36:27.398Z,24.10
2023-08-17T15:38:55.496Z,24.60
2023-08-17T15:41:24.962Z,24.40
2023-08-17T15:43:53.023Z,26.00
2023-08-17T15:46:21.039Z,23.90
2023-08-17T15:48:49.778Z,23.20
2023-08-17T15:51:17.851Z,23.30
2023-08-17T15:53:45.847Z,25.90
2023-08-17T15:56:13.913Z,25.70
2023-08-17T15:58:44.253Z,26.00
2023-08-17T16:01:12.331Z,26.70
2023-08-17T16:03:40.424Z,25.80
2023-08-17T16:06:08.670Z,27.30
2023-08-17T16:08:48.025Z,28.00
2023-08-17T16:11:17.162Z,28.40
2023-08-17T16:13:49.502Z,28.80
2023-08-17T16:16:17.635Z,28.80
2023-08-17T16:18:45.690Z,29.00
2023-08-17T16:21:15.094Z,26.70
2023-08-17T16:23:44.516Z,26.60
2023-08-17T16:26:12.574Z,28.10
2023-08-17T16:28:40.639Z,27.90
2023-08-17T16:31:10.317Z,28.80
2023-08-17T16:33:41.321Z,29.50
2023-08-17T16:36:09.576Z,29.30
2023-08-17T16:38:37.873Z,28.50
2023-08-17T16:41:06.159Z,30.00
2023-08-17T16:43:34.252Z,29.70
2023-08-17T16:46:02.319Z,30.70
2023-08-17T16:48:31.882Z,30.80
2023-08-17T16:50:59.956Z,31.40
2023-08-17T16:53:27.985Z,31.30
2023-08-17T16:55:56.077Z,32.30
2023-08-17T16:58:24.118Z,33.90
2023-08-17T17:00:52.694Z,33.30
2023-08-17T17:03:20.708Z,33.40
2023-08-17T17:05:50.140Z,32.70
2023-08-17T17:08:18.200Z,35.10
2023-08-17T17:10:46.218Z,36.50
2023-08-17T17:13:14.304Z,36.70
2023-08-17T17:15:42.420Z,37.30
2023-08-17T17:18:10.631Z,38.80
2023-08-17T17:20:38.744Z,38.30
2023-08-17T17:23:08.145Z,38.40
2023-08-17T17:25:36.151Z,39.10
2023-08-17T17:28:04.386Z,39.50
2023-08-17T17:30:32.398Z,38.60
2023-08-17T17:33:00.443Z,39.60
2023-08-17T17:35:28.492Z,40.50
2023-08-17T17:37:56.527Z,39.60
2023-08-17T17:40:25.920Z,40.10
2023-08-17T17:42:54.007Z,39.50
2023-08-17T17:45:22.051Z,39.80
2023-08-17T17:47:50.098Z,41.20
2023-08-17T17:50:18.217Z,42.90
2023-08-17T17:52:48.562Z,45.30
2023-08-17T17:55:16.961Z,44.30
2023-08-17T17:57:47.104Z,43.70
2023-08-17T18:00:16.127Z,45.50
2023-08-17T18:02:44.387Z,47.10
2023-08-17T18:05:12.941Z,48.30
2023-08-17T18:07:41.137Z,46.10
2023-08-17T18:10:10.049Z,45.80
2023-08-17T18:12:38.139Z,47.90
2023-08-17T18:15:08.739Z,48.60
2023-08-17T18:17:36.871Z,50.00
2023-08-17T18:20:05.704Z,50.30
2023-08-17T18:22:33.835Z,51.30
2023-08-17T18:25:01.907Z,67.70
2023-08-17T18:27:31.940Z,58.00
2023-08-17T18:30:00.322Z,62.10
2023-08-17T18:32:29.765Z,70.50
2023-08-17T18:34:57.845Z,64.30
2023-08-17T18:37:25.984Z,66.00
2023-08-17T18:39:54.305Z,67.20
2023-08-17T18:42:22.291Z,69.00
2023-08-17T18:44:50.332Z,84.10
2023-08-17T18:47:18.374Z,74.70
2023-08-17T18:49:47.727Z,79.30
2023-08-17T18:52:15.846Z,92.20
2023-08-17T18:54:59.484Z,82.90
2023-08-17T18:57:27.619Z,85.10
2023-08-17T18:59:55.879Z,86.70
2023-08-17T19:02:24.248Z,88.40
2023-08-17T19:04:53.696Z,87.40
2023-08-17T19:07:21.697Z,87.90
2023-08-17T19:09:49.744Z,90.10
2023-08-17T19:12:18.983Z,91.40
2023-08-17T19:14:47.832Z,86.00
2023-08-17T19:17:15.926Z,85.90
2023-08-17T19:19:44.077Z,87.50
2023-08-17T19:22:13.534Z,88.30
2023-08-17T19:24:41.628Z,88.40
2023-08-17T19:27:09.656Z,88.20
2023-08-17T19:29:37.663Z,88.30
2023-08-17T19:32:05.988Z,88.50
2023-08-17T19:34:34.034Z,86.20
2023-08-17T19:37:02.130Z,86.00
2023-08-17T19:39:31.529Z,86.00
2023-08-17T19:41:59.557Z,86.80
2023-08-17T19:44:28.413Z,86.90
2023-08-17T19:46:56.581Z,87.20
2023-08-17T19:49:24.607Z,84.50
2023-08-17T19:51:52.623Z,84.80
2023-08-17T19:54:20.804Z,87.80
2023-08-17T19:56:50.555Z,90.30
2023-08-17T19:59:19.178Z,91.80
2023-08-17T20:01:49.620Z,92.20
2023-08-17T20:04:17.732Z,92.50
2023-08-17T20:06:46.914Z,92.90
2023-08-17T20:09:15.549Z,92.30
2023-08-17T20:11:43.621Z,91.00
2023-08-17T20:14:15.303Z,90.50
2023-08-17T20:16:44.888Z,90.90
2023-08-17T20:19:13.357Z,90.50
2023-08-17T20:21:41.484Z,90.90
2023-08-17T20:24:10.804Z,91.30
2023-08-17T20:26:39.433Z,90.70
2023-08-17T20:29:07.480Z,90.30
2023-08-17T20:31:37.114Z,91.40
2023-08-17T20:34:05.308Z,90.40
2023-08-17T20:36:33.403Z,90.30
2023-08-17T20:39:08.473Z,89.80
2023-08-17T20:41:36.971Z,89.80
2023-08-17T20:44:05.428Z,89.40
2023-08-17T20:46:33.466Z,90.10
2023-08-17T20:49:05.481Z,91.00
2023-08-17T20:51:33.597Z,90.10
2023-08-17T20:54:01.735Z,90.00
2023-08-17T20:56:30.118Z,89.10
2023-08-17T20:58:58.195Z,87.80
2023-08-17T21:01:26.852Z,87.90
2023-08-17T21:03:54.995Z,88.70
2023-08-17T21:06:24.728Z,90.30
2023-08-17T21:08:52.774Z,91.00
2023-08-17T21:11:20.983Z,90.70
2023-08-17T21:13:49.085Z,91.10
2023-08-17T21:16:17.125Z,90.50
2023-08-17T21:18:45.194Z,90.90
2023-08-17T21:21:13.248Z,90.80
2023-08-17T21:23:42.949Z,90.00
2023-08-17T21:26:11.530Z,90.60
2023-08-17T21:28:39.553Z,90.00
2023-08-17T21:31:07.827Z,89.20
2023-08-17T21:33:35.897Z,88.50
2023-08-17T21:36:04.632Z,90.90
2023-08-17T21:38:32.714Z,92.90
2023-08-17T21:41:02.594Z,93.20
2023-08-17T21:43:31.331Z,92.30
2023-08-17T21:46:00.127Z,92.10
2023-08-17T21:48:28.407Z,92.10
2023-08-17T21:50:56.603Z,92.10
2023-08-17T21:53:24.642Z,92.00
2023-08-17T21:55:53.637Z,91.10
2023-08-17T21:58:22.999Z,90.70
2023-08-17T22:00:52.615Z,92.10
2023-08-17T22:03:20.799Z,93.00
